Mineral Wells, West Virginia
Current Conditions -  °F | °C
As of 10:53 AM on Monday 22 Dec 2014 (Local Time) from KPKB Reporting Station
Clear Clear  
Wind Chill: 43°   Ceiling: Unl
Heat Index: 47°   Visibility: 10mi
Dew Point: 33°   Wind: 8mph
Humidity: 59%   Direction: 150°SSE
Pressure: 30.08"   Gusts: NA
Location:  39.21°N, 81.54°W
Report Text: KPKB 221553Z 15007KT 10SM CLR 08/01 A3008 RMK AO2 SLP191 T00830006
Loading
Personal Weather Stations






























Interactive Weather Map New forecast layout! Learn more

10-Day Weather Forecast

Advertisements
Track Severe Weather on mobile